Time;durP1;ratioP1;P1;durP2;ratioP2;P2;SDS_P1;SDS_P2;PMS_P1;PMS_P2;Temp;Humidity;BMP_temperature;BMP_pressure;BME280_temperature;BME280_humidity;BME280_pressure;Samples;Min_cycle;Max_cycle;Signal;HPM_P1;HPM_P2
2022/04/13 00:00:27;;;;;;;2.40;2.20;;;;;;;;;;5104900;28;20249;-67
2022/04/13 00:02:53;;;;;;;3.10;2.28;;;;;;;;;;5105070;28;20318;-67
2022/04/13 00:05:20;;;;;;;5.50;3.10;;;;;;;;;;5104858;28;20238;-67
2022/04/13 00:07:46;;;;;;;5.18;3.15;;;;;;;;;;5104622;28;20549;-67
2022/04/13 00:10:13;;;;;;;4.43;2.65;;;;;;;;;;5105027;28;20425;-67
2022/04/13 00:12:40;;;;;;;6.28;2.65;;;;;;;;;;5105154;28;20230;-67
2022/04/13 00:15:09;;;;;;;5.15;2.95;;;;;;;;;;5104825;28;20207;-67
2022/04/13 00:17:36;;;;;;;3.00;2.38;;;;;;;;;;5104547;28;20204;-67
2022/04/13 00:20:02;;;;;;;8.30;2.60;;;;;;;;;;5104658;28;20207;-67
2022/04/13 00:22:28;;;;;;;4.43;3.22;;;;;;;;;;5104843;28;20235;-67
2022/04/13 00:24:54;;;;;;;4.15;2.75;;;;;;;;;;5104781;28;20196;-67
2022/04/13 00:27:22;;;;;;;2.50;2.30;;;;;;;;;;5104421;28;20208;-67
2022/04/13 00:29:48;;;;;;;6.35;3.13;;;;;;;;;;5104548;28;20241;-67
2022/04/13 00:32:14;;;;;;;6.28;3.45;;;;;;;;;;5104843;28;20195;-67
2022/04/13 00:34:41;;;;;;;8.52;2.63;;;;;;;;;;5104438;28;20235;-67
2022/04/13 00:37:07;;;;;;;3.55;2.80;;;;;;;;;;5104279;28;20386;-67
2022/04/13 00:39:33;;;;;;;6.80;3.17;;;;;;;;;;5104473;28;20271;-67
2022/04/13 00:42:00;;;;;;;10.80;3.78;;;;;;;;;;5104306;28;20253;-67
2022/04/13 00:44:29;;;;;;;8.52;4.28;;;;;;;;;;5104142;28;20458;-67
2022/04/13 00:46:55;;;;;;;7.90;4.13;;;;;;;;;;5103919;28;20504;-67
2022/04/13 00:49:22;;;;;;;12.02;3.88;;;;;;;;;;5104040;28;20199;-67
2022/04/13 00:51:49;;;;;;;14.90;3.85;;;;;;;;;;5104187;28;20202;-67
2022/04/13 00:54:17;;;;;;;8.77;4.15;;;;;;;;;;5104143;28;20200;-67
2022/04/13 00:56:44;;;;;;;8.05;3.70;;;;;;;;;;5103867;28;20218;-67
2022/04/13 00:59:12;;;;;;;11.30;3.95;;;;;;;;;;5104007;28;20526;-67
2022/04/13 01:01:41;;;;;;;15.45;4.45;;;;;;;;;;5103309;28;20204;-67
2022/04/13 01:04:07;;;;;;;13.05;4.25;;;;;;;;;;5103658;28;20227;-67
2022/04/13 01:06:34;;;;;;;10.30;4.20;;;;;;;;;;5103379;28;20249;-67
2022/04/13 01:09:02;;;;;;;9.98;3.83;;;;;;;;;;5103711;28;20196;-67
2022/04/13 01:11:28;;;;;;;8.50;3.78;;;;;;;;;;5103773;28;20654;-67
2022/04/13 01:13:56;;;;;;;10.02;4.35;;;;;;;;;;5103758;28;20380;-67
2022/04/13 01:16:22;;;;;;;8.05;3.55;;;;;;;;;;5103199;28;20200;-67
2022/04/13 01:18:50;;;;;;;8.90;3.83;;;;;;;;;;5103728;28;20196;-67
2022/04/13 01:21:19;;;;;;;8.05;3.70;;;;;;;;;;5103670;28;20202;-67
2022/04/13 01:23:47;;;;;;;5.38;3.47;;;;;;;;;;5103510;28;20565;-67
2022/04/13 01:26:13;;;;;;;9.60;3.50;;;;;;;;;;5103212;28;20196;-67
2022/04/13 01:28:39;;;;;;;3.50;2.80;;;;;;;;;;5103363;28;20203;-67
2022/04/13 01:31:06;;;;;;;5.00;2.88;;;;;;;;;;5103066;28;20233;-67
2022/04/13 01:33:32;;;;;;;6.55;3.20;;;;;;;;;;5103445;28;20203;-67
2022/04/13 01:36:01;;;;;;;5.75;3.03;;;;;;;;;;5102951;28;20199;-67
2022/04/13 01:38:27;;;;;;;4.70;3.13;;;;;;;;;;5102803;28;20196;-67
2022/04/13 01:40:55;;;;;;;5.38;3.05;;;;;;;;;;5103016;28;20195;-67
2022/04/13 01:43:21;;;;;;;4.35;3.45;;;;;;;;;;5103030;28;20219;-67
2022/04/13 01:45:47;;;;;;;6.38;3.63;;;;;;;;;;5102917;28;20195;-67
2022/04/13 01:48:14;;;;;;;7.72;4.30;;;;;;;;;;5102687;28;20199;-67
2022/04/13 01:50:40;;;;;;;9.85;4.10;;;;;;;;;;5102972;28;20200;-67
2022/04/13 01:53:06;;;;;;;9.27;4.00;;;;;;;;;;5102980;28;20625;-67
2022/04/13 01:55:32;;;;;;;5.20;3.47;;;;;;;;;;5102726;28;20196;-67
2022/04/13 01:58:00;;;;;;;3.08;2.65;;;;;;;;;;5102585;28;20233;-67
2022/04/13 02:00:26;;;;;;;4.60;3.08;;;;;;;;;;5102685;28;20207;-67
2022/04/13 02:02:53;;;;;;;5.30;3.10;;;;;;;;;;5102714;28;20337;-67
2022/04/13 02:05:19;;;;;;;3.80;3.40;;;;;;;;;;5102771;28;20219;-67
2022/04/13 02:07:45;;;;;;;4.20;3.80;;;;;;;;;;5102429;28;20394;-67
2022/04/13 02:10:12;;;;;;;4.30;3.40;;;;;;;;;;5102666;28;20221;-67
2022/04/13 02:12:38;;;;;;;5.30;3.75;;;;;;;;;;5102066;28;20196;-67
2022/04/13 02:15:06;;;;;;;3.90;3.50;;;;;;;;;;5102807;28;20210;-67
2022/04/13 02:17:33;;;;;;;3.72;3.33;;;;;;;;;;5102333;28;20208;-67
2022/04/13 02:19:59;;;;;;;5.30;2.90;;;;;;;;;;5102590;28;20403;-67
2022/04/13 02:22:25;;;;;;;3.05;2.78;;;;;;;;;;5102405;28;20269;-67
2022/04/13 02:24:51;;;;;;;7.82;2.85;;;;;;;;;;5102562;28;20451;-68
2022/04/13 02:27:18;;;;;;;2.58;2.38;;;;;;;;;;5102369;28;20488;-68
2022/04/13 02:29:46;;;;;;;3.17;2.88;;;;;;;;;;5102463;28;20389;-67
2022/04/13 02:32:14;;;;;;;3.00;2.80;;;;;;;;;;5102345;28;20200;-67
2022/04/13 02:34:40;;;;;;;3.17;2.58;;;;;;;;;;5102350;28;20476;-68
2022/04/13 02:37:09;;;;;;;3.60;2.75;;;;;;;;;;5102021;28;20199;-67
2022/04/13 02:39:35;;;;;;;2.88;2.60;;;;;;;;;;5102572;28;20200;-67
2022/04/13 02:42:02;;;;;;;2.20;2.10;;;;;;;;;;5102367;28;20211;-67
2022/04/13 02:44:28;;;;;;;2.45;2.35;;;;;;;;;;5102238;28;20234;-67
2022/04/13 02:46:54;;;;;;;2.60;2.50;;;;;;;;;;5102028;28;20225;-68
2022/04/13 02:49:22;;;;;;;3.47;2.92;;;;;;;;;;5102164;28;20241;-67
2022/04/13 02:51:48;;;;;;;6.40;3.10;;;;;;;;;;5101999;28;20199;-67
2022/04/13 02:54:14;;;;;;;4.93;3.22;;;;;;;;;;5102331;28;20199;-67
2022/04/13 02:56:40;;;;;;;5.82;3.40;;;;;;;;;;5101912;28;20241;-67
2022/04/13 02:59:07;;;;;;;6.80;3.03;;;;;;;;;;5102273;28;20200;-67
2022/04/13 03:01:33;;;;;;;5.32;3.55;;;;;;;;;;5101974;28;20208;-67
2022/04/13 03:03:59;;;;;;;4.90;2.90;;;;;;;;;;5102175;28;20215;-67
2022/04/13 03:06:27;;;;;;;4.57;2.80;;;;;;;;;;5101800;28;20391;-67
2022/04/13 03:08:53;;;;;;;4.45;3.15;;;;;;;;;;5102154;28;20249;-67
2022/04/13 03:11:19;;;;;;;6.88;2.92;;;;;;;;;;5102164;28;20233;-67
2022/04/13 03:13:46;;;;;;;5.20;3.28;;;;;;;;;;5102147;28;20191;-67
2022/04/13 03:16:12;;;;;;;5.22;3.20;;;;;;;;;;5101761;28;20204;-67
2022/04/13 03:18:39;;;;;;;3.13;2.95;;;;;;;;;;5101899;28;20432;-67
2022/04/13 03:21:05;;;;;;;5.72;3.30;;;;;;;;;;5102239;28;20499;-67
2022/04/13 03:23:33;;;;;;;7.75;3.60;;;;;;;;;;5102234;28;20572;-67
2022/04/13 03:25:59;;;;;;;5.13;3.13;;;;;;;;;;5105561;28;20425;-68
2022/04/13 03:28:25;;;;;;;4.65;3.35;;;;;;;;;;5105444;28;20233;-67
2022/04/13 03:30:53;;;;;;;4.00;3.60;;;;;;;;;;5105665;28;20195;-67
2022/04/13 03:33:19;;;;;;;3.05;2.85;;;;;;;;;;5105500;28;20191;-67
2022/04/13 03:35:46;;;;;;;4.03;3.10;;;;;;;;;;5105879;28;20488;-67
2022/04/13 03:38:12;;;;;;;3.35;2.92;;;;;;;;;;5105386;28;20564;-67
2022/04/13 03:40:39;;;;;;;2.90;2.70;;;;;;;;;;5105422;28;20218;-67
2022/04/13 03:43:06;;;;;;;4.22;2.40;;;;;;;;;;5105442;28;20499;-67
2022/04/13 03:45:32;;;;;;;4.28;2.78;;;;;;;;;;5105189;28;20192;-67
2022/04/13 03:47:58;;;;;;;5.15;2.65;;;;;;;;;;5104944;28;20196;-67
2022/04/13 03:50:24;;;;;;;3.40;2.92;;;;;;;;;;5105560;28;20241;-67
2022/04/13 03:52:51;;;;;;;3.35;3.05;;;;;;;;;;5105490;28;20320;-67
2022/04/13 03:55:19;;;;;;;3.75;3.45;;;;;;;;;;5105244;28;20229;-67
2022/04/13 03:57:47;;;;;;;3.75;3.45;;;;;;;;;;5104933;28;20204;-67
2022/04/13 04:00:14;;;;;;;3.97;3.67;;;;;;;;;;5105081;28;20212;-67
2022/04/13 04:02:40;;;;;;;4.95;4.63;;;;;;;;;;5104948;28;20195;-67
2022/04/13 04:05:07;;;;;;;6.00;5.25;;;;;;;;;;5105093;28;20464;-67
2022/04/13 04:07:33;;;;;;;8.02;4.90;;;;;;;;;;5104880;28;20503;-67
2022/04/13 04:09:59;;;;;;;7.47;5.22;;;;;;;;;;5105012;28;20256;-67
2022/04/13 04:12:25;;;;;;;8.05;5.13;;;;;;;;;;5104806;28;20426;-67
2022/04/13 04:14:53;;;;;;;5.40;4.90;;;;;;;;;;5104795;28;20215;-67
2022/04/13 04:17:19;;;;;;;4.88;4.47;;;;;;;;;;5104733;28;20491;-67
2022/04/13 04:19:45;;;;;;;5.82;4.65;;;;;;;;;;5104884;28;20196;-67
2022/04/13 04:22:13;;;;;;;4.57;3.92;;;;;;;;;;5104789;28;20203;-67
2022/04/13 04:24:39;;;;;;;3.75;3.40;;;;;;;;;;5104655;28;20224;-67
2022/04/13 04:27:06;;;;;;;3.97;3.63;;;;;;;;;;5104438;28;20241;-67
2022/04/13 04:29:32;;;;;;;3.40;3.13;;;;;;;;;;5104445;28;20199;-67
2022/04/13 04:31:59;;;;;;;4.53;3.00;;;;;;;;;;5104891;28;20202;-67
2022/04/13 04:34:26;;;;;;;3.95;2.97;;;;;;;;;;5104679;28;20191;-67
2022/04/13 04:36:52;;;;;;;3.25;2.97;;;;;;;;;;5103566;28;20203;-67
2022/04/13 04:39:18;;;;;;;5.35;3.25;;;;;;;;;;5104555;28;20195;-67
2022/04/13 04:41:45;;;;;;;3.97;3.20;;;;;;;;;;5104375;28;20234;-67
2022/04/13 04:44:11;;;;;;;4.75;4.05;;;;;;;;;;5104150;28;20218;-67
2022/04/13 04:46:38;;;;;;;5.43;4.30;;;;;;;;;;5104200;28;20199;-67
2022/04/13 04:49:05;;;;;;;5.97;4.07;;;;;;;;;;5104340;28;20207;-67
2022/04/13 04:51:32;;;;;;;5.32;4.28;;;;;;;;;;5104078;28;20196;-67
2022/04/13 04:53:58;;;;;;;4.63;4.10;;;;;;;;;;5104120;28;20351;-67
2022/04/13 04:56:25;;;;;;;5.13;4.20;;;;;;;;;;5103800;28;20195;-67
2022/04/13 04:58:51;;;;;;;7.40;4.60;;;;;;;;;;5103865;28;20203;-67
2022/04/13 05:01:17;;;;;;;5.28;4.28;;;;;;;;;;5103896;28;20207;-67
2022/04/13 05:03:48;;;;;;;7.63;5.07;;;;;;;;;;5104161;28;20529;-67
2022/04/13 05:06:16;;;;;;;4.70;4.18;;;;;;;;;;5103785;28;20222;-67
2022/04/13 05:08:42;;;;;;;4.70;4.30;;;;;;;;;;5103870;28;20565;-67
2022/04/13 05:11:08;;;;;;;6.75;4.57;;;;;;;;;;5103683;28;20203;-67
2022/04/13 05:13:35;;;;;;;5.80;4.45;;;;;;;;;;5103698;28;20385;-67
2022/04/13 05:16:01;;;;;;;9.90;4.65;;;;;;;;;;5103687;28;20219;-67
2022/04/13 05:18:27;;;;;;;9.00;4.47;;;;;;;;;;5103252;28;20196;-67
2022/04/13 05:20:54;;;;;;;5.03;4.50;;;;;;;;;;5102925;28;20196;-66
2022/04/13 05:23:21;;;;;;;6.32;4.72;;;;;;;;;;5102888;28;20396;-59
2022/04/13 05:25:48;;;;;;;5.25;3.97;;;;;;;;;;5102563;28;20256;-59
2022/04/13 05:28:15;;;;;;;7.18;4.82;;;;;;;;;;5103027;28;20192;-59
2022/04/13 05:30:41;;;;;;;7.78;5.13;;;;;;;;;;5102864;28;20499;-57
2022/04/13 05:33:07;;;;;;;8.43;5.65;;;;;;;;;;5102795;28;20234;-59
2022/04/13 05:35:33;;;;;;;9.45;4.88;;;;;;;;;;5102534;28;20381;-58
2022/04/13 05:38:02;;;;;;;6.80;5.50;;;;;;;;;;5084928;28;20211;-59
2022/04/13 05:40:29;;;;;;;8.52;4.90;;;;;;;;;;5094721;28;20219;-58
2022/04/13 05:42:55;;;;;;;6.85;5.18;;;;;;;;;;5096330;28;20208;-58
2022/04/13 05:45:22;;;;;;;8.25;5.35;;;;;;;;;;5096637;28;20219;-57
2022/04/13 05:47:48;;;;;;;12.88;5.47;;;;;;;;;;5095959;28;20392;-59
2022/04/13 05:50:14;;;;;;;8.15;6.15;;;;;;;;;;5096326;28;20451;-59
2022/04/13 05:52:41;;;;;;;6.63;5.32;;;;;;;;;;5097787;28;20210;-59
2022/04/13 05:55:08;;;;;;;8.60;5.68;;;;;;;;;;5086249;28;20520;-57
2022/04/13 05:57:36;;;;;;;7.85;5.88;;;;;;;;;;5089298;28;20199;-59
2022/04/13 06:00:03;;;;;;;8.20;5.30;;;;;;;;;;5095591;28;20242;-60
2022/04/13 06:02:29;;;;;;;8.75;5.40;;;;;;;;;;5096225;28;20226;-59
2022/04/13 06:04:56;;;;;;;10.27;5.32;;;;;;;;;;5096209;28;20239;-59
2022/04/13 06:07:22;;;;;;;11.52;5.32;;;;;;;;;;5095523;28;20208;-58
2022/04/13 06:09:48;;;;;;;9.25;5.85;;;;;;;;;;5096446;28;20192;-58
2022/04/13 06:12:21;;;;;;;7.65;4.90;;;;;;;;;;5096728;28;20226;-58
2022/04/13 06:14:49;;;;;;;12.23;4.85;;;;;;;;;;5097205;28;20203;-58
2022/04/13 06:17:16;;;;;;;6.57;5.28;;;;;;;;;;5096280;28;20249;-58
2022/04/13 06:19:42;;;;;;;11.02;5.10;;;;;;;;;;5096885;28;20203;-59
2022/04/13 06:22:08;;;;;;;11.55;5.25;;;;;;;;;;5096738;28;20215;-56
2022/04/13 06:24:35;;;;;;;10.73;5.13;;;;;;;;;;5094268;28;20304;-58
2022/04/13 06:27:01;;;;;;;9.85;4.85;;;;;;;;;;5096270;28;20245;-59
2022/04/13 06:29:27;;;;;;;9.55;6.00;;;;;;;;;;5096601;28;20208;-58
2022/04/13 06:31:55;;;;;;;8.20;6.57;;;;;;;;;;5096664;28;20214;-58
2022/04/13 06:34:21;;;;;;;13.68;7.72;;;;;;;;;;5096463;28;20211;-57
2022/04/13 06:36:47;;;;;;;9.27;6.88;;;;;;;;;;5096321;28;20568;-59
2022/04/13 06:39:14;;;;;;;6.97;6.13;;;;;;;;;;5096564;28;20257;-59
2022/04/13 06:41:40;;;;;;;6.90;5.97;;;;;;;;;;5096578;28;20217;-59
2022/04/13 06:44:07;;;;;;;9.50;5.38;;;;;;;;;;5096240;28;20533;-58
2022/04/13 06:46:36;;;;;;;6.00;4.57;;;;;;;;;;5096018;28;20216;-59
2022/04/13 06:49:03;;;;;;;5.10;4.60;;;;;;;;;;5095784;28;20207;-57
2022/04/13 06:51:30;;;;;;;5.10;4.60;;;;;;;;;;5096462;28;20238;-57
2022/04/13 06:53:56;;;;;;;7.05;4.30;;;;;;;;;;5096026;28;20426;-58
2022/04/13 06:56:22;;;;;;;8.40;4.85;;;;;;;;;;5095874;28;20415;-56
2022/04/13 06:58:48;;;;;;;4.75;4.13;;;;;;;;;;5096901;28;20208;-57
2022/04/13 07:01:15;;;;;;;4.82;4.40;;;;;;;;;;5100223;28;20241;-58
2022/04/13 07:03:41;;;;;;;5.88;4.00;;;;;;;;;;5100233;28;20462;-58
2022/04/13 07:06:09;;;;;;;5.22;4.18;;;;;;;;;;5099769;28;20400;-58
2022/04/13 07:08:35;;;;;;;4.10;3.70;;;;;;;;;;5100154;28;20213;-57
2022/04/13 07:11:01;;;;;;;5.97;4.25;;;;;;;;;;5100191;28;20212;-57
2022/04/13 07:13:27;;;;;;;4.88;4.47;;;;;;;;;;5099865;28;20215;-57
2022/04/13 07:15:53;;;;;;;5.65;4.82;;;;;;;;;;5099439;28;20204;-57
2022/04/13 07:18:20;;;;;;;9.20;4.75;;;;;;;;;;5099437;28;20215;-56
2022/04/13 07:20:46;;;;;;;4.90;4.45;;;;;;;;;;5099602;28;20455;-56
2022/04/13 07:23:14;;;;;;;4.95;4.43;;;;;;;;;;5099818;28;20519;-56
2022/04/13 07:25:40;;;;;;;6.25;4.47;;;;;;;;;;5099762;28;20587;-56
2022/04/13 07:28:06;;;;;;;6.03;4.30;;;;;;;;;;5099922;28;20214;-56
2022/04/13 07:30:33;;;;;;;4.40;4.05;;;;;;;;;;5100113;28;20203;-56
2022/04/13 07:33:01;;;;;;;4.95;4.13;;;;;;;;;;5099498;28;20207;-57
2022/04/13 07:35:27;;;;;;;6.28;4.32;;;;;;;;;;5099459;28;20405;-57
2022/04/13 07:37:54;;;;;;;4.88;4.35;;;;;;;;;;5099004;28;20425;-58
2022/04/13 07:40:21;;;;;;;4.13;3.50;;;;;;;;;;5099756;28;20241;-58
2022/04/13 07:42:48;;;;;;;7.32;3.92;;;;;;;;;;5099602;28;20381;-57
2022/04/13 07:45:14;;;;;;;4.35;3.97;;;;;;;;;;5098958;28;20266;-57
2022/04/13 07:47:40;;;;;;;4.18;3.75;;;;;;;;;;5099520;28;20515;-58
2022/04/13 07:50:07;;;;;;;6.20;4.25;;;;;;;;;;5099484;28;20710;-57
2022/04/13 07:52:34;;;;;;;5.68;4.10;;;;;;;;;;5099720;28;20492;-58
2022/04/13 07:55:00;;;;;;;6.45;4.13;;;;;;;;;;5099397;28;20203;-58
2022/04/13 07:57:28;;;;;;;4.80;4.15;;;;;;;;;;5099301;28;20208;-58
2022/04/13 07:59:54;;;;;;;5.82;3.83;;;;;;;;;;5099169;28;20211;-58
2022/04/13 08:02:21;;;;;;;12.45;5.60;;;;;;;;;;5099200;28;20211;-58
2022/04/13 08:04:47;;;;;;;6.00;5.32;;;;;;;;;;5098052;28;20232;-58
2022/04/13 08:07:14;;;;;;;7.63;6.07;;;;;;;;;;5098053;28;20499;-58
2022/04/13 08:09:40;;;;;;;6.40;4.57;;;;;;;;;;5098385;28;20274;-58
2022/04/13 08:12:07;;;;;;;8.07;4.55;;;;;;;;;;5097367;28;20208;-57
2022/04/13 08:14:34;;;;;;;6.05;4.68;;;;;;;;;;5098125;28;20212;-57
2022/04/13 08:17:04;;;;;;;7.55;4.78;;;;;;;;;;5098174;28;20208;-58
2022/04/13 08:19:30;;;;;;;7.22;5.78;;;;;;;;;;5098441;28;20199;-59
2022/04/13 08:21:56;;;;;;;8.40;4.90;;;;;;;;;;5098611;28;20541;-57
2022/04/13 08:24:22;;;;;;;6.88;4.70;;;;;;;;;;5098603;28;20499;-58
2022/04/13 08:26:49;;;;;;;7.43;4.38;;;;;;;;;;5098185;28;20272;-57
2022/04/13 08:29:15;;;;;;;5.95;4.22;;;;;;;;;;5098347;28;20581;-59
2022/04/13 08:31:42;;;;;;;6.45;4.57;;;;;;;;;;5098312;28;20207;-58
2022/04/13 08:34:09;;;;;;;6.47;4.68;;;;;;;;;;5097680;28;20216;-60
2022/04/13 08:36:35;;;;;;;7.15;4.82;;;;;;;;;;5097677;28;20295;-59
2022/04/13 08:39:01;;;;;;;56.72;6.57;;;;;;;;;;5098168;28;20207;-59
2022/04/13 08:41:31;;;;;;;20.88;5.78;;;;;;;;;;5098425;28;20462;-58
2022/04/13 08:44:01;;;;;;;21.40;5.55;;;;;;;;;;5098970;28;20227;-57
2022/04/13 08:46:28;;;;;;;8.55;4.18;;;;;;;;;;5098011;28;20224;-57
2022/04/13 08:48:57;;;;;;;9.52;3.67;;;;;;;;;;5098182;28;20277;-58
2022/04/13 08:51:24;;;;;;;10.90;4.20;;;;;;;;;;5098137;28;20229;-57
2022/04/13 08:53:56;;;;;;;5.43;4.25;;;;;;;;;;5098272;28;20211;-57
2022/04/13 08:56:23;;;;;;;54.20;6.68;;;;;;;;;;5097786;28;20204;-57
2022/04/13 08:58:51;;;;;;;6.72;4.22;;;;;;;;;;5098270;28;20207;-57
2022/04/13 09:01:21;;;;;;;8.50;4.18;;;;;;;;;;5095109;28;20520;-58
2022/04/13 09:03:49;;;;;;;10.45;4.15;;;;;;;;;;5087295;28;20234;-58
2022/04/13 09:06:19;;;;;;;12.60;4.43;;;;;;;;;;5088244;28;20231;-58
2022/04/13 09:08:49;;;;;;;6.13;3.45;;;;;;;;;;5088100;28;20216;-57
2022/04/13 09:11:15;;;;;;;9.95;4.63;;;;;;;;;;5087085;28;20208;-58
2022/04/13 09:13:44;;;;;;;19.85;4.53;;;;;;;;;;5088642;28;20199;-58
2022/04/13 09:16:10;;;;;;;10.15;3.85;;;;;;;;;;5088663;28;20205;-58
2022/04/13 09:18:37;;;;;;;11.32;4.22;;;;;;;;;;5086038;28;20204;-57
2022/04/13 09:21:03;;;;;;;5.80;3.55;;;;;;;;;;5087038;28;20535;-58
2022/04/13 09:23:31;;;;;;;10.27;3.55;;;;;;;;;;5086121;28;20208;-58
2022/04/13 09:25:58;;;;;;;8.38;3.92;;;;;;;;;;5095643;28;20223;-57
2022/04/13 09:28:25;;;;;;;13.43;3.95;;;;;;;;;;5097712;28;20208;-57
2022/04/13 09:30:52;;;;;;;4.35;3.58;;;;;;;;;;5097547;28;20212;-58
2022/04/13 09:33:19;;;;;;;6.68;4.18;;;;;;;;;;5097743;28;20440;-59
2022/04/13 09:35:46;;;;;;;9.05;3.28;;;;;;;;;;5097020;28;20384;-59
2022/04/13 09:38:12;;;;;;;7.10;2.67;;;;;;;;;;5097372;28;20207;-59
2022/04/13 09:40:40;;;;;;;6.38;3.10;;;;;;;;;;5097643;28;20246;-58
2022/04/13 09:43:07;;;;;;;6.70;2.95;;;;;;;;;;5097466;28;20219;-59
2022/04/13 09:45:34;;;;;;;5.13;2.63;;;;;;;;;;5097065;28;20224;-59
2022/04/13 09:48:04;;;;;;;6.30;2.75;;;;;;;;;;5096743;28;20218;-58
2022/04/13 09:50:31;;;;;;;6.25;2.80;;;;;;;;;;5097090;28;20215;-59
2022/04/13 09:52:57;;;;;;;6.85;3.45;;;;;;;;;;5097314;28;20437;-57
2022/04/13 09:55:25;;;;;;;5.65;2.65;;;;;;;;;;5096886;28;20212;-58
2022/04/13 09:58:03;;;;;;;5.13;2.55;;;;;;;;;;5097272;28;20245;-59
2022/04/13 10:00:29;;;;;;;5.63;2.60;;;;;;;;;;5097360;28;20215;-58
2022/04/13 10:03:06;;;;;;;4.85;2.28;;;;;;;;;;5097010;28;20216;-58
2022/04/13 10:05:32;;;;;;;4.10;2.42;;;;;;;;;;5097216;28;20269;-59
2022/04/13 10:08:01;;;;;;;6.13;2.95;;;;;;;;;;5097125;28;20253;-58
2022/04/13 10:10:28;;;;;;;5.82;3.25;;;;;;;;;;5097210;28;20208;-59
2022/04/13 10:12:55;;;;;;;8.02;3.67;;;;;;;;;;5097175;28;20272;-58
2022/04/13 10:15:22;;;;;;;8.15;2.90;;;;;;;;;;5096177;28;20204;-57
2022/04/13 10:17:48;;;;;;;3.65;3.33;;;;;;;;;;5096791;28;20207;-58
2022/04/13 10:20:14;;;;;;;6.80;2.75;;;;;;;;;;5096999;28;20552;-58
2022/04/13 10:22:56;;;;;;;5.47;2.97;;;;;;;;;;5096754;28;20211;-56
2022/04/13 10:25:35;;;;;;;7.45;2.80;;;;;;;;;;5096937;28;20392;-57
2022/04/13 10:28:03;;;;;;;5.45;3.35;;;;;;;;;;5097523;28;20542;-57
2022/04/13 10:30:30;;;;;;;10.05;3.72;;;;;;;;;;5097218;28;20231;-57
2022/04/13 10:32:57;;;;;;;8.15;3.08;;;;;;;;;;5096597;28;20511;-58
2022/04/13 10:35:23;;;;;;;11.50;3.17;;;;;;;;;;5095989;28;20200;-57
2022/04/13 10:37:51;;;;;;;8.07;2.63;;;;;;;;;;5096708;28;20208;-56
2022/04/13 10:40:18;;;;;;;6.97;2.15;;;;;;;;;;5096509;28;20199;-58
2022/04/13 10:42:45;;;;;;;5.68;3.17;;;;;;;;;;5096558;28;20211;-56
2022/04/13 10:45:14;;;;;;;5.03;2.00;;;;;;;;;;5096156;28;20245;-57
2022/04/13 10:47:41;;;;;;;7.45;2.10;;;;;;;;;;5096318;28;20269;-58
2022/04/13 10:50:08;;;;;;;5.47;2.50;;;;;;;;;;5096444;28;20211;-57
2022/04/13 10:52:38;;;;;;;10.20;1.98;;;;;;;;;;5096429;28;20211;-57
2022/04/13 10:55:05;;;;;;;1.90;1.80;;;;;;;;;;5095875;28;20265;-58
2022/04/13 10:57:35;;;;;;;7.88;2.00;;;;;;;;;;5096018;28;20207;-59
2022/04/13 11:00:04;;;;;;;4.05;1.90;;;;;;;;;;5087365;28;20265;-59
2022/04/13 11:02:34;;;;;;;7.10;2.35;;;;;;;;;;5094298;28;20221;-59
2022/04/13 11:05:01;;;;;;;7.53;2.08;;;;;;;;;;5094906;28;20223;-59
2022/04/13 11:07:27;;;;;;;4.97;2.00;;;;;;;;;;5095133;28;20227;-58
2022/04/13 11:09:55;;;;;;;6.07;1.80;;;;;;;;;;5095650;28;20531;-59
2022/04/13 11:12:22;;;;;;;2.38;2.10;;;;;;;;;;5095751;28;20199;-59
2022/04/13 11:14:50;;;;;;;7.95;1.90;;;;;;;;;;5095225;28;20207;-60
2022/04/13 11:17:26;;;;;;;4.10;2.08;;;;;;;;;;5095317;28;20212;-59
2022/04/13 11:20:14;;;;;;;4.25;1.70;;;;;;;;;;5089211;28;20242;-59
2022/04/13 11:22:40;;;;;;;8.15;2.25;;;;;;;;;;5084761;28;20230;-59
2022/04/13 11:25:06;;;;;;;5.65;1.88;;;;;;;;;;5084249;28;20442;-59
2022/04/13 11:27:48;;;;;;;9.45;2.05;;;;;;;;;;5075171;28;20227;-59
2022/04/13 11:30:14;;;;;;;11.50;1.63;;;;;;;;;;5075751;28;20204;-58
2022/04/13 11:32:40;;;;;;;10.20;2.20;;;;;;;;;;5075361;28;20199;-58
2022/04/13 11:35:13;;;;;;;2.58;1.50;;;;;;;;;;5074938;28;20445;-60
2022/04/13 11:37:43;;;;;;;6.10;2.05;;;;;;;;;;5075065;28;20496;-59
2022/04/13 11:40:11;;;;;;;5.45;2.10;;;;;;;;;;5075156;28;20208;-60
2022/04/13 11:42:50;;;;;;;6.07;1.83;;;;;;;;;;5075301;28;20208;-59
2022/04/13 11:45:17;;;;;;;8.65;1.98;;;;;;;;;;5076031;28;20233;-59
2022/04/13 11:47:44;;;;;;;4.50;2.20;;;;;;;;;;5078833;28;20546;-58
2022/04/13 11:50:22;;;;;;;8.65;1.92;;;;;;;;;;5078825;28;20508;-58
2022/04/13 11:52:50;;;;;;;5.38;2.00;;;;;;;;;;5080100;28;20203;-59
2022/04/13 11:55:17;;;;;;;6.18;1.80;;;;;;;;;;5098240;28;20278;-60
2022/04/13 11:58:15;;;;;;;5.72;1.83;;;;;;;;;;5098756;28;20203;-60
2022/04/13 12:00:42;;;;;;;6.93;2.60;;;;;;;;;;5099152;28;20215;-60
2022/04/13 12:03:09;;;;;;;2.60;1.98;;;;;;;;;;5099176;28;20199;-60
2022/04/13 12:05:38;;;;;;;7.38;2.17;;;;;;;;;;5098238;28;20276;-61
2022/04/13 12:08:11;;;;;;;9.15;2.10;;;;;;;;;;5098318;28;20207;-59
2022/04/13 12:10:37;;;;;;;5.57;1.73;;;;;;;;;;5098826;28;20203;-59
2022/04/13 12:13:04;;;;;;;8.77;2.15;;;;;;;;;;5098669;28;20214;-60
2022/04/13 12:15:41;;;;;;;5.15;1.98;;;;;;;;;;5097827;28;20905;-59
2022/04/13 12:18:07;;;;;;;7.72;1.90;;;;;;;;;;5098619;28;20229;-59
2022/04/13 12:20:34;;;;;;;9.45;2.28;;;;;;;;;;5098417;28;20214;-60
2022/04/13 12:23:14;;;;;;;3.95;1.80;;;;;;;;;;5098376;28;20253;-60
2022/04/13 12:25:41;;;;;;;4.30;2.10;;;;;;;;;;5098371;28;20252;-61
2022/04/13 12:28:08;;;;;;;3.22;1.90;;;;;;;;;;5099437;28;20203;-59
2022/04/13 12:30:34;;;;;;;5.65;2.17;;;;;;;;;;5098401;28;20252;-59
2022/04/13 12:33:11;;;;;;;7.50;2.33;;;;;;;;;;5098111;28;20207;-59
2022/04/13 12:35:46;;;;;;;8.80;2.20;;;;;;;;;;5097923;28;20267;-60
2022/04/13 12:38:20;;;;;;;6.80;2.05;;;;;;;;;;5098061;28;20249;-60
2022/04/13 12:40:46;;;;;;;4.30;1.80;;;;;;;;;;5099292;28;20206;-60
2022/04/13 12:43:24;;;;;;;2.85;1.42;;;;;;;;;;5098206;28;20414;-59
2022/04/13 12:45:50;;;;;;;8.68;1.95;;;;;;;;;;5097170;28;20256;-60
2022/04/13 12:48:17;;;;;;;5.13;3.05;;;;;;;;;;5097737;28;20206;-60
2022/04/13 12:50:54;;;;;;;5.60;2.00;;;;;;;;;;5097952;28;20208;-60
2022/04/13 12:53:21;;;;;;;5.38;1.90;;;;;;;;;;5097679;28;20400;-61
2022/04/13 12:55:51;;;;;;;5.00;1.98;;;;;;;;;;5097121;28;20207;-60
2022/04/13 12:58:17;;;;;;;5.82;1.63;;;;;;;;;;5097129;28;20215;-60
2022/04/13 13:00:50;;;;;;;2.55;1.65;;;;;;;;;;5097695;28;20218;-60
2022/04/13 13:03:16;;;;;;;5.88;1.45;;;;;;;;;;5097911;28;20211;-60
2022/04/13 13:05:43;;;;;;;3.47;2.08;;;;;;;;;;5096951;28;20231;-60
2022/04/13 13:08:09;;;;;;;5.15;2.00;;;;;;;;;;5097261;28;20246;-60
2022/04/13 13:10:37;;;;;;;6.07;1.73;;;;;;;;;;5097457;28;20264;-59
2022/04/13 13:13:11;;;;;;;5.50;1.77;;;;;;;;;;5097421;28;20278;-60
2022/04/13 13:15:38;;;;;;;4.75;1.65;;;;;;;;;;5097417;28;20207;-61
2022/04/13 13:18:05;;;;;;;5.85;1.50;;;;;;;;;;5097424;28;20203;-61
2022/04/13 13:20:31;;;;;;;9.07;2.10;;;;;;;;;;5097892;28;20211;-60
2022/04/13 13:22:58;;;;;;;3.80;1.80;;;;;;;;;;5097718;28;20207;-61
2022/04/13 13:25:24;;;;;;;4.90;1.88;;;;;;;;;;5097694;28;20533;-59
2022/04/13 13:27:54;;;;;;;5.05;1.52;;;;;;;;;;5097503;28;20270;-61
2022/04/13 13:30:21;;;;;;;3.63;1.80;;;;;;;;;;5095577;28;20203;-60
2022/04/13 13:32:48;;;;;;;7.57;1.88;;;;;;;;;;5077473;28;20208;-59
2022/04/13 13:35:15;;;;;;;5.30;2.05;;;;;;;;;;5077023;28;20212;-59
2022/04/13 13:37:42;;;;;;;1.88;1.50;;;;;;;;;;5076902;28;20462;-60
2022/04/13 13:40:27;;;;;;;10.43;1.88;;;;;;;;;;5077158;28;20568;-60
2022/04/13 13:42:54;;;;;;;11.90;3.22;;;;;;;;;;5077483;28;20212;-59
2022/04/13 13:45:21;;;;;;;9.60;2.08;;;;;;;;;;5079217;28;20434;-67
2022/04/13 13:47:47;;;;;;;5.07;1.58;;;;;;;;;;5082581;28;20215;-67
2022/04/13 13:50:13;;;;;;;7.88;1.75;;;;;;;;;;5082851;28;20379;-67
2022/04/13 13:52:40;;;;;;;5.07;1.80;;;;;;;;;;5082910;28;20426;-67
2022/04/13 13:55:07;;;;;;;9.55;1.80;;;;;;;;;;5082702;28;20195;-67
2022/04/13 13:57:33;;;;;;;5.32;2.08;;;;;;;;;;5082583;28;20192;-67
2022/04/13 14:00:01;;;;;;;4.97;1.73;;;;;;;;;;5082601;28;20207;-67
2022/04/13 14:02:27;;;;;;;3.55;1.92;;;;;;;;;;5082480;28;20200;-67
2022/04/13 14:04:53;;;;;;;8.20;1.80;;;;;;;;;;5082585;28;20200;-67
2022/04/13 14:07:19;;;;;;;12.30;2.60;;;;;;;;;;5082299;28;20266;-67
2022/04/13 14:09:47;;;;;;;5.03;2.08;;;;;;;;;;5081684;28;20208;-67
2022/04/13 14:12:13;;;;;;;6.80;2.05;;;;;;;;;;5082489;28;20393;-67
2022/04/13 14:14:40;;;;;;;5.88;1.75;;;;;;;;;;5082471;28;20196;-67
2022/04/13 14:17:09;;;;;;;4.60;1.60;;;;;;;;;;5082114;28;20435;-67
2022/04/13 14:19:35;;;;;;;15.02;2.35;;;;;;;;;;5082528;28;20249;-67
2022/04/13 14:22:01;;;;;;;14.65;2.05;;;;;;;;;;5082648;28;20417;-67
2022/04/13 14:24:27;;;;;;;24.35;2.10;;;;;;;;;;5082271;28;20242;-67
2022/04/13 14:26:53;;;;;;;8.35;1.80;;;;;;;;;;5081889;28;20262;-67
2022/04/13 14:29:20;;;;;;;6.13;2.05;;;;;;;;;;5082315;28;20218;-67
2022/04/13 14:31:46;;;;;;;14.32;1.85;;;;;;;;;;5082175;28;20200;-67
2022/04/13 14:34:14;;;;;;;9.35;1.95;;;;;;;;;;5082356;28;20242;-67
2022/04/13 14:36:41;;;;;;;7.65;1.70;;;;;;;;;;5082319;28;20367;-67
2022/04/13 14:39:08;;;;;;;6.72;1.50;;;;;;;;;;5082279;28;20196;-67
2022/04/13 14:41:34;;;;;;;8.63;2.03;;;;;;;;;;5082120;28;20196;-67